createdAt,value
2022-09-27T00:00:08.076Z,12.43
2022-09-27T00:01:24.116Z,12.28
2022-09-27T00:04:31.610Z,12.33
2022-09-27T00:05:35.643Z,12.34
2022-09-27T00:06:42.633Z,12.36
2022-09-27T00:12:01.131Z,12.43
2022-09-27T00:14:25.332Z,12.45
2022-09-27T00:16:57.765Z,12.46
2022-09-27T00:19:38.448Z,12.49
2022-09-27T00:21:05.681Z,12.49
2022-09-27T00:21:48.863Z,12.49
2022-09-27T00:24:34.141Z,12.50
2022-09-27T00:25:48.436Z,12.49
2022-09-27T00:27:11.537Z,12.50
2022-09-27T00:29:23.905Z,12.53
2022-09-27T00:30:33.341Z,12.53
2022-09-27T00:32:23.478Z,12.51
2022-09-27T00:32:44.271Z,12.48
2022-09-27T00:33:54.138Z,12.48
2022-09-27T00:34:57.991Z,12.50
2022-09-27T00:36:06.390Z,12.47
2022-09-27T00:37:11.387Z,12.46
2022-09-27T00:38:15.478Z,12.43
2022-09-27T00:39:20.015Z,12.43
2022-09-27T00:40:24.458Z,12.38
2022-09-27T00:41:31.530Z,12.39
2022-09-27T00:42:35.567Z,12.39
2022-09-27T00:43:50.798Z,12.39
2022-09-27T00:45:03.737Z,12.39
2022-09-27T00:46:08.495Z,12.40
2022-09-27T00:49:02.029Z,12.38
2022-09-27T00:50:22.307Z,12.38
2022-09-27T00:51:26.495Z,12.39
2022-09-27T00:52:37.690Z,12.40
2022-09-27T00:53:54.885Z,12.40
2022-09-27T00:55:04.546Z,12.40
2022-09-27T00:56:18.166Z,12.39
2022-09-27T00:58:43.480Z,12.38
2022-09-27T00:59:53.288Z,12.37
2022-09-27T01:01:04.461Z,12.37
2022-09-27T01:02:10.071Z,12.37
2022-09-27T01:03:17.035Z,12.37
2022-09-27T01:04:25.680Z,12.37
2022-09-27T01:05:30.359Z,12.37
2022-09-27T01:06:37.108Z,12.36
2022-09-27T01:07:45.180Z,12.33
2022-09-27T01:08:58.186Z,12.33
2022-09-27T01:10:02.162Z,12.30
2022-09-27T01:11:34.653Z,12.28
2022-09-27T01:12:56.777Z,12.21
2022-09-27T01:14:07.835Z,12.19
2022-09-27T01:15:31.058Z,12.18
2022-09-27T01:16:50.031Z,12.17
2022-09-27T01:18:17.403Z,12.15
2022-09-27T01:19:36.122Z,12.14
2022-09-27T01:21:13.202Z,12.16
2022-09-27T01:22:25.906Z,12.16
2022-09-27T01:23:45.100Z,12.13
2022-09-27T01:25:06.769Z,12.12
2022-09-27T01:26:27.636Z,12.09
2022-09-27T01:32:13.193Z,12.11
2022-09-27T01:32:27.293Z,12.10
2022-09-27T01:33:24.477Z,12.13
2022-09-27T01:34:37.119Z,12.13
2022-09-27T01:35:55.787Z,12.15
2022-09-27T01:37:26.644Z,12.15
2022-09-27T01:38:39.633Z,12.18
2022-09-27T01:39:52.236Z,12.14
2022-09-27T01:41:08.353Z,12.14
2022-09-27T01:42:31.843Z,12.15
2022-09-27T01:43:40.158Z,12.15
2022-09-27T01:45:21.100Z,12.13
2022-09-27T01:48:00.018Z,12.11
2022-09-27T01:50:59.517Z,12.05
2022-09-27T01:52:12.692Z,12.06
2022-09-27T01:54:51.151Z,12.05
2022-09-27T02:00:10.848Z,12.23
2022-09-27T02:01:18.406Z,12.04
2022-09-27T02:02:28.043Z,12.04
2022-09-27T02:03:40.490Z,12.07
2022-09-27T02:08:46.228Z,12.25
2022-09-27T02:10:23.007Z,12.13
2022-09-27T02:11:23.341Z,12.16
2022-09-27T02:12:30.119Z,12.17
2022-09-27T02:13:53.808Z,12.19
2022-09-27T02:14:56.174Z,12.19
2022-09-27T02:16:25.028Z,12.21
2022-09-27T02:17:38.507Z,12.23
2022-09-27T02:18:51.107Z,12.23
2022-09-27T02:20:13.408Z,12.24
2022-09-27T02:21:12.504Z,12.24
2022-09-27T02:22:37.671Z,12.24
2022-09-27T02:23:48.957Z,12.24
2022-09-27T02:25:14.293Z,12.22
2022-09-27T02:29:40.627Z,12.29
2022-09-27T02:30:56.814Z,12.09
2022-09-27T02:32:01.073Z,12.06
2022-09-27T02:34:22.911Z,12.07
2022-09-27T02:35:42.643Z,12.09
2022-09-27T02:36:56.813Z,12.10
2022-09-27T02:38:01.954Z,12.13
2022-09-27T02:39:15.700Z,12.13
2022-09-27T02:40:15.366Z,12.12
2022-09-27T02:41:32.912Z,12.12
2022-09-27T02:42:31.121Z,12.14
2022-09-27T02:43:42.080Z,12.16
2022-09-27T02:46:58.824Z,12.13
2022-09-27T02:48:08.877Z,12.14
2022-09-27T02:49:32.120Z,12.14
2022-09-27T02:52:44.908Z,12.14
2022-09-27T02:54:06.874Z,12.11
2022-09-27T02:55:31.529Z,11.86
2022-09-27T02:56:52.045Z,12.02
2022-09-27T02:58:10.623Z,12.01
2022-09-27T02:59:33.532Z,12.00
2022-09-27T03:02:00.175Z,12.03
2022-09-27T03:02:22.269Z,12.00
2022-09-27T03:03:15.594Z,11.86
2022-09-27T03:04:32.592Z,11.86
2022-09-27T03:05:45.105Z,12.04
2022-09-27T03:06:49.835Z,12.08
2022-09-27T03:07:53.751Z,12.10
2022-09-27T03:08:57.842Z,12.10
2022-09-27T03:10:05.803Z,12.13
2022-09-27T03:11:22.442Z,12.15
2022-09-27T03:12:21.041Z,12.17
2022-09-27T03:13:50.203Z,12.18
2022-09-27T03:14:38.791Z,12.20
2022-09-27T03:21:28.346Z,12.24
2022-09-27T03:22:15.656Z,12.22
2022-09-27T03:23:20.063Z,12.23
2022-09-27T03:24:24.037Z,12.23
2022-09-27T03:25:30.162Z,12.23
2022-09-27T03:26:34.180Z,12.22
2022-09-27T03:34:38.635Z,12.39
2022-09-27T03:36:14.972Z,12.23
2022-09-27T03:49:51.233Z,12.32
2022-09-27T03:53:41.441Z,12.22
2022-09-27T03:56:16.902Z,12.23
2022-09-27T03:57:27.938Z,12.32
2022-09-27T03:58:36.114Z,12.33
2022-09-27T04:01:12.408Z,12.37
2022-09-27T04:02:28.378Z,12.39
2022-09-27T04:03:31.922Z,12.42
2022-09-27T04:04:54.360Z,12.41
2022-09-27T04:05:50.394Z,12.41
2022-09-27T04:07:18.801Z,12.40
2022-09-27T04:08:32.247Z,12.40
2022-09-27T04:12:42.655Z,12.35
2022-09-27T04:30:08.574Z,12.23
2022-09-27T04:32:33.959Z,12.23
2022-09-27T04:35:00.824Z,12.25
2022-09-27T04:36:04.981Z,12.25
2022-09-27T04:37:10.650Z,12.28
2022-09-27T04:41:34.293Z,12.49
2022-09-27T04:43:59.386Z,12.42
2022-09-27T04:50:01.059Z,12.59
2022-09-27T04:51:05.980Z,12.44
2022-09-27T04:52:09.984Z,12.43
2022-09-27T04:53:18.077Z,12.43
2022-09-27T04:54:47.463Z,12.44
2022-09-27T04:58:37.021Z,12.47
2022-09-27T05:00:52.191Z,12.47
2022-09-27T05:06:57.327Z,12.70
2022-09-27T05:08:03.468Z,12.53
2022-09-27T05:09:09.284Z,12.53
2022-09-27T05:10:22.206Z,12.55
2022-09-27T05:11:32.647Z,12.56
2022-09-27T05:13:06.751Z,12.40
2022-09-27T05:13:53.445Z,12.59
2022-09-27T05:15:31.863Z,12.60
2022-09-27T05:16:12.425Z,12.60
2022-09-27T05:17:16.874Z,12.61
2022-09-27T05:18:28.814Z,12.61
2022-09-27T05:19:38.178Z,12.61
2022-09-27T05:22:14.027Z,12.59
2022-09-27T05:23:36.659Z,12.59
2022-09-27T05:24:33.254Z,12.58
2022-09-27T05:25:50.398Z,12.55
2022-09-27T05:26:47.234Z,12.55
2022-09-27T05:27:55.519Z,12.55
2022-09-27T05:29:04.999Z,12.54
2022-09-27T05:30:15.470Z,12.54
2022-09-27T05:31:32.662Z,12.55
2022-09-27T05:32:38.474Z,12.57
2022-09-27T05:33:57.863Z,12.57
2022-09-27T05:37:12.359Z,12.58
2022-09-27T05:38:00.292Z,12.61
2022-09-27T05:39:10.626Z,12.65
2022-09-27T05:55:12.693Z,12.72
2022-09-27T05:56:12.762Z,12.28
2022-09-27T05:57:34.593Z,12.76
2022-09-27T05:59:43.956Z,12.83
2022-09-27T06:00:54.378Z,12.86
2022-09-27T06:01:58.395Z,12.88
2022-09-27T06:03:05.327Z,12.89
2022-09-27T06:04:14.112Z,12.94
2022-09-27T06:05:16.620Z,12.94
2022-09-27T06:06:20.973Z,12.98
2022-09-27T06:07:27.718Z,12.98
2022-09-27T06:26:02.163Z,13.34
2022-09-27T06:45:43.237Z,13.81
2022-09-27T06:47:37.369Z,13.67
2022-09-27T06:48:31.534Z,13.71
2022-09-27T06:49:36.156Z,13.72
2022-09-27T06:51:09.592Z,13.72
2022-09-27T06:51:33.127Z,13.74
2022-09-27T06:55:20.915Z,13.69
2022-09-27T06:56:36.973Z,13.69
2022-09-27T06:57:40.365Z,13.70
2022-09-27T06:58:44.228Z,13.71
2022-09-27T06:59:54.112Z,13.71
2022-09-27T07:02:48.483Z,13.77
2022-09-27T07:04:10.849Z,13.79
2022-09-27T07:05:35.487Z,13.81
2022-09-27T07:08:22.255Z,13.82
2022-09-27T07:08:56.921Z,13.89
2022-09-27T07:10:12.905Z,13.91
2022-09-27T07:11:29.721Z,13.91
2022-09-27T07:12:41.078Z,14.00
2022-09-27T07:13:45.275Z,14.05
2022-09-27T07:15:01.178Z,14.07
2022-09-27T07:16:05.297Z,14.10
2022-09-27T07:18:35.491Z,14.14
2022-09-27T07:19:57.693Z,14.18
2022-09-27T07:21:08.195Z,14.25
2022-09-27T07:22:17.599Z,14.28
2022-09-27T07:26:05.634Z,14.31
2022-09-27T07:27:19.090Z,14.31
2022-09-27T07:29:50.181Z,14.29
2022-09-27T07:31:02.566Z,14.29
2022-09-27T07:32:20.980Z,14.29
2022-09-27T07:33:33.812Z,14.29
2022-09-27T07:34:42.768Z,14.29
2022-09-27T07:39:57.676Z,14.30
2022-09-27T07:42:36.977Z,14.32
2022-09-27T07:43:33.001Z,14.32
2022-09-27T07:44:38.434Z,14.32
2022-09-27T07:45:45.728Z,14.35
2022-09-27T07:49:28.300Z,14.36
2022-09-27T07:50:58.662Z,14.36
2022-09-27T07:51:46.821Z,14.37
2022-09-27T07:55:58.959Z,14.41
2022-09-27T07:56:43.650Z,14.43
2022-09-27T07:58:33.106Z,14.42
2022-09-27T07:59:02.504Z,14.44
2022-09-27T08:00:24.129Z,14.44
2022-09-27T08:04:14.366Z,14.64
2022-09-27T08:06:29.824Z,14.52
2022-09-27T08:10:26.208Z,14.56
2022-09-27T08:12:04.127Z,14.60
2022-09-27T08:12:51.850Z,14.63
2022-09-27T08:14:17.989Z,14.64
2022-09-27T08:15:36.226Z,14.67
2022-09-27T08:16:42.234Z,14.67
2022-09-27T08:17:42.867Z,14.70
2022-09-27T08:18:54.222Z,14.70
2022-09-27T08:19:55.298Z,14.73
2022-09-27T08:21:07.502Z,14.77
2022-09-27T08:22:14.599Z,14.77
2022-09-27T08:23:25.835Z,14.83
2022-09-27T08:24:29.599Z,14.86
2022-09-27T08:26:37.066Z,14.89
2022-09-27T08:27:24.422Z,14.93
2022-09-27T08:30:02.953Z,14.97
2022-09-27T08:34:09.356Z,14.99
2022-09-27T08:35:29.560Z,14.99
2022-09-27T08:37:59.578Z,15.01
2022-09-27T08:40:43.832Z,15.00
2022-09-27T08:43:44.108Z,14.97
2022-09-27T08:57:16.155Z,14.80
2022-09-27T08:58:34.801Z,14.80
2022-09-27T09:08:43.601Z,14.90
2022-09-27T09:10:21.284Z,14.90
2022-09-27T09:11:52.430Z,14.95
2022-09-27T09:12:56.008Z,14.99
2022-09-27T09:14:24.862Z,14.99
2022-09-27T09:15:33.353Z,15.03
2022-09-27T09:16:55.845Z,15.03
2022-09-27T09:18:13.802Z,15.10
2022-09-27T09:19:34.628Z,15.14
2022-09-27T09:21:13.100Z,15.16
2022-09-27T09:22:44.065Z,15.18
2022-09-27T09:24:03.560Z,15.18
2022-09-27T09:25:14.531Z,15.23
2022-09-27T09:26:36.748Z,15.26
2022-09-27T09:27:49.684Z,15.31
2022-09-27T09:29:00.926Z,15.35
2022-09-27T09:30:14.853Z,15.38
2022-09-27T09:31:31.532Z,15.42
2022-09-27T09:32:51.973Z,15.48
2022-09-27T09:34:03.601Z,15.48
2022-09-27T09:35:32.677Z,15.65
2022-09-27T09:36:34.817Z,15.75
2022-09-27T09:37:46.506Z,15.81
2022-09-27T09:38:56.088Z,15.85
2022-09-27T09:40:20.880Z,15.90
2022-09-27T09:41:40.087Z,15.96
2022-09-27T09:42:58.741Z,15.96
2022-09-27T09:44:21.348Z,16.04
2022-09-27T09:45:38.198Z,16.04
2022-09-27T09:46:45.989Z,16.07
2022-09-27T09:48:03.888Z,16.10
2022-09-27T09:49:28.553Z,16.13
2022-09-27T09:50:56.857Z,16.15
2022-09-27T09:52:09.347Z,16.15
2022-09-27T09:53:34.060Z,16.14
2022-09-27T09:54:43.565Z,16.14
2022-09-27T10:09:30.376Z,16.38
2022-09-27T10:23:37.733Z,16.45
2022-09-27T10:26:05.702Z,16.48
2022-09-27T10:27:09.710Z,16.62
2022-09-27T10:34:06.347Z,16.90
2022-09-27T10:38:50.853Z,17.05
2022-09-27T10:39:54.102Z,17.12
2022-09-27T10:41:12.989Z,17.12
2022-09-27T10:42:35.864Z,16.10
2022-09-27T10:45:29.117Z,17.15
2022-09-27T10:46:38.362Z,17.15
2022-09-27T10:47:58.819Z,17.15
2022-09-27T10:49:35.002Z,17.12
2022-09-27T10:50:59.253Z,17.12
2022-09-27T11:25:18.155Z,17.42
2022-09-27T11:26:49.982Z,17.25
2022-09-27T11:28:09.239Z,17.29
2022-09-27T11:29:21.678Z,17.29
2022-09-27T11:30:35.951Z,17.33
2022-09-27T11:31:45.646Z,17.33
2022-09-27T11:33:10.655Z,17.34
2022-09-27T11:34:40.034Z,17.34
2022-09-27T11:35:52.728Z,17.34
2022-09-27T11:37:02.495Z,17.33
2022-09-27T11:38:34.614Z,17.32
2022-09-27T11:39:30.866Z,17.34
2022-09-27T11:42:22.306Z,17.32
2022-09-27T11:43:52.709Z,17.26
2022-09-27T11:46:45.069Z,17.19
2022-09-27T11:48:08.807Z,17.15
2022-09-27T11:49:31.958Z,17.11
2022-09-27T11:51:05.746Z,17.10
2022-09-27T11:52:27.646Z,17.06
2022-09-27T11:53:40.415Z,17.05
2022-09-27T11:56:35.162Z,17.08
2022-09-27T11:58:24.996Z,17.09
2022-09-27T11:59:31.296Z,17.09
2022-09-27T12:02:32.626Z,17.28
2022-09-27T12:03:46.110Z,17.14
2022-09-27T12:05:06.986Z,17.16
2022-09-27T12:09:20.423Z,17.17
2022-09-27T12:09:47.603Z,17.20
2022-09-27T12:11:11.966Z,17.27
2022-09-27T12:14:01.041Z,17.43
2022-09-27T12:15:09.895Z,17.43
2022-09-27T12:17:20.623Z,17.48
2022-09-27T12:17:33.986Z,17.57
2022-09-27T12:18:53.646Z,17.60
2022-09-27T12:23:17.284Z,17.53
2022-09-27T12:27:33.587Z,17.48
2022-09-27T12:33:31.769Z,17.57
2022-09-27T12:35:02.303Z,17.59
2022-09-27T12:36:09.248Z,17.61
2022-09-27T12:37:28.124Z,17.63
2022-09-27T12:38:55.763Z,17.63
2022-09-27T12:40:20.832Z,17.65
2022-09-27T12:41:28.933Z,17.64
2022-09-27T12:42:56.879Z,15.31
2022-09-27T12:44:03.423Z,17.68
2022-09-27T12:45:36.133Z,17.72
2022-09-27T12:47:16.275Z,17.72
2022-09-27T13:03:49.917Z,18.10
2022-09-27T13:05:13.322Z,17.94
2022-09-27T13:06:42.428Z,17.99
2022-09-27T13:08:22.008Z,17.99
2022-09-27T13:09:32.157Z,18.00
2022-09-27T13:11:01.447Z,17.98
2022-09-27T13:12:12.422Z,17.96
2022-09-27T13:13:17.151Z,17.94
2022-09-27T13:15:39.696Z,17.94
2022-09-27T13:16:09.728Z,17.94
2022-09-27T13:16:48.421Z,17.94
2022-09-27T13:18:02.391Z,17.91
2022-09-27T13:19:16.090Z,17.86
2022-09-27T13:21:57.614Z,17.83
2022-09-27T13:23:04.660Z,17.83
2022-09-27T13:24:30.782Z,17.80
2022-09-27T13:27:22.789Z,17.74
2022-09-27T13:28:32.625Z,17.72
2022-09-27T13:29:36.509Z,17.66
2022-09-27T13:30:45.324Z,17.66
2022-09-27T13:31:59.797Z,17.57
2022-09-27T13:33:30.802Z,17.53
2022-09-27T13:39:26.134Z,17.50
2022-09-27T13:41:14.602Z,17.50
2022-09-27T13:42:06.987Z,17.50
2022-09-27T13:43:17.696Z,17.50
2022-09-27T13:49:26.258Z,17.47
2022-09-27T13:50:39.793Z,17.32
2022-09-27T13:51:59.991Z,17.46
2022-09-27T13:53:26.148Z,17.45
2022-09-27T13:54:52.621Z,17.44
2022-09-27T13:56:14.854Z,17.40
2022-09-27T13:57:40.009Z,17.37
2022-09-27T13:59:07.582Z,17.37
2022-09-27T14:07:04.320Z,17.18
2022-09-27T14:07:13.710Z,17.16
2022-09-27T14:08:32.635Z,17.17
2022-09-27T14:13:08.601Z,17.17
2022-09-27T14:15:33.811Z,17.20
2022-09-27T14:18:18.598Z,17.21
2022-09-27T14:21:06.335Z,17.21
2022-09-27T14:24:45.472Z,17.18
2022-09-27T14:27:48.487Z,17.17
2022-09-27T14:32:24.989Z,16.85
2022-09-27T14:33:36.723Z,16.75
2022-09-27T14:35:10.730Z,16.70
2022-09-27T14:35:55.037Z,16.67
2022-09-27T14:38:36.432Z,16.63
2022-09-27T14:40:20.308Z,16.59
2022-09-27T14:40:21.899Z,16.63
2022-09-27T14:44:46.422Z,16.48
2022-09-27T14:45:56.070Z,16.46
2022-09-27T14:47:21.541Z,16.37
2022-09-27T14:50:21.541Z,16.34
2022-09-27T14:53:18.937Z,16.24
2022-09-27T14:56:08.461Z,16.14
2022-09-27T14:57:20.582Z,16.12
2022-09-27T14:59:54.005Z,16.08
2022-09-27T15:10:04.313Z,15.70
2022-09-27T15:14:32.215Z,15.54
2022-09-27T15:16:02.739Z,15.54
2022-09-27T15:16:48.669Z,15.45
2022-09-27T15:18:16.052Z,15.41
2022-09-27T15:19:26.683Z,15.39
2022-09-27T15:20:35.803Z,15.36
2022-09-27T15:21:39.996Z,15.30
2022-09-27T15:22:44.299Z,15.30
2022-09-27T15:23:51.788Z,15.27
2022-09-27T15:24:58.693Z,15.22
2022-09-27T15:26:08.880Z,15.22
2022-09-27T15:33:04.633Z,15.06
2022-09-27T15:33:42.632Z,15.01
2022-09-27T15:49:53.725Z,14.54
2022-09-27T15:53:45.904Z,14.55
2022-09-27T15:54:51.858Z,14.56
2022-09-27T15:56:02.847Z,14.59
2022-09-27T15:57:12.584Z,14.59
2022-09-27T15:58:27.670Z,14.62
2022-09-27T15:59:51.382Z,14.62
2022-09-27T16:04:28.234Z,14.62
2022-09-27T16:05:18.348Z,14.63
2022-09-27T16:08:35.803Z,14.63
2022-09-27T16:09:40.214Z,14.58
2022-09-27T16:10:58.887Z,14.58
2022-09-27T16:12:22.550Z,14.52
2022-09-27T16:16:41.995Z,14.42
2022-09-27T16:17:44.656Z,14.42
2022-09-27T16:19:57.872Z,14.42
2022-09-27T16:25:17.269Z,14.33
2022-09-27T16:26:39.905Z,14.32
2022-09-27T16:27:42.911Z,14.30
2022-09-27T16:28:48.523Z,14.30
2022-09-27T16:29:54.669Z,14.28
2022-09-27T16:31:08.089Z,14.28
2022-09-27T16:32:12.053Z,14.28
2022-09-27T16:33:22.067Z,14.27
2022-09-27T16:34:30.184Z,14.25
2022-09-27T16:35:36.817Z,14.25
2022-09-27T16:36:41.165Z,14.25
2022-09-27T16:51:51.506Z,13.89
2022-09-27T16:53:05.814Z,13.88
2022-09-27T16:55:22.090Z,13.88
2022-09-27T16:58:27.701Z,13.89
2022-09-27T16:59:21.156Z,13.89
2022-09-27T17:01:43.578Z,13.92
2022-09-27T17:02:52.866Z,13.92
2022-09-27T17:03:58.394Z,13.92
2022-09-27T17:05:06.441Z,13.92
2022-09-27T17:06:19.490Z,13.92
2022-09-27T17:07:34.013Z,13.93
2022-09-27T17:08:39.026Z,13.90
2022-09-27T17:09:45.626Z,13.89
2022-09-27T17:10:54.998Z,13.90
2022-09-27T17:13:28.230Z,13.90
2022-09-27T17:15:03.789Z,13.89
2022-09-27T17:17:31.227Z,13.87
2022-09-27T17:21:27.381Z,13.86
2022-09-27T17:22:44.467Z,13.84
2022-09-27T17:24:04.926Z,13.83
2022-09-27T17:25:14.601Z,13.83
2022-09-27T17:26:34.606Z,13.78
2022-09-27T17:27:51.242Z,13.76
2022-09-27T17:29:02.177Z,13.72
2022-09-27T17:30:08.638Z,13.72
2022-09-27T17:31:18.198Z,13.69
2022-09-27T17:33:53.255Z,13.68
2022-09-27T17:34:58.503Z,13.65
2022-09-27T17:36:03.293Z,13.64
2022-09-27T17:37:12.375Z,13.62
2022-09-27T17:38:14.735Z,13.62
2022-09-27T17:39:21.623Z,13.59
2022-09-27T17:40:28.841Z,13.59
2022-09-27T17:41:39.910Z,13.59
2022-09-27T17:42:43.244Z,13.58
2022-09-27T17:43:49.706Z,13.56
2022-09-27T17:45:00.250Z,13.49
2022-09-27T18:35:43.416Z,13.52
2022-09-27T18:36:49.031Z,13.55
2022-09-27T18:37:53.563Z,13.57
2022-09-27T18:39:03.645Z,13.59
2022-09-27T18:40:09.564Z,13.64
2022-09-27T18:41:19.996Z,13.66
2022-09-27T18:42:30.305Z,13.69
2022-09-27T18:45:07.781Z,13.76
2022-09-27T18:46:35.082Z,13.79
2022-09-27T18:47:38.237Z,13.80
2022-09-27T18:48:51.168Z,13.81
2022-09-27T18:56:41.921Z,13.99
2022-09-27T18:57:58.217Z,13.85
2022-09-27T18:59:10.444Z,13.85
2022-09-27T19:00:16.708Z,13.84
2022-09-27T19:01:30.849Z,13.84
2022-09-27T19:02:42.701Z,13.84
2022-09-27T19:03:59.511Z,13.84
2022-09-27T19:05:03.781Z,13.83
2022-09-27T19:07:17.886Z,13.84
2022-09-27T19:07:33.642Z,13.82
2022-09-27T19:08:41.203Z,13.82
2022-09-27T19:14:20.058Z,13.76
2022-09-27T19:15:31.303Z,13.77
2022-09-27T19:16:54.916Z,13.77
2022-09-27T19:17:45.140Z,13.77
2022-09-27T19:20:22.851Z,13.78
2022-09-27T19:21:29.740Z,13.78
2022-09-27T19:22:37.770Z,13.78
2022-09-27T19:23:43.698Z,13.77
2022-09-27T19:24:52.682Z,13.76
2022-09-27T19:25:58.078Z,13.78
2022-09-27T19:29:48.300Z,13.77
2022-09-27T19:30:54.033Z,13.78
2022-09-27T19:35:19.777Z,13.72
2022-09-27T19:38:03.855Z,13.71
2022-09-27T19:40:15.940Z,13.69
2022-09-27T19:40:32.357Z,13.69
2022-09-27T19:55:47.644Z,13.60
2022-09-27T19:56:53.395Z,13.60
2022-09-27T19:57:58.937Z,13.57
2022-09-27T19:59:08.139Z,13.57
2022-09-27T20:00:13.687Z,13.57
2022-09-27T20:02:31.824Z,13.62
2022-09-27T20:09:46.576Z,13.69
2022-09-27T20:11:06.127Z,13.69
2022-09-27T20:15:34.539Z,13.69
2022-09-27T20:19:46.959Z,13.76
2022-09-27T20:30:47.904Z,13.82
2022-09-27T20:32:02.900Z,13.70
2022-09-27T20:33:11.218Z,13.73
2022-09-27T20:36:09.805Z,13.74
2022-09-27T20:51:38.585Z,13.63
2022-09-27T20:52:52.898Z,13.64
2022-09-27T20:54:52.722Z,13.64
2022-09-27T20:55:10.918Z,13.65
2022-09-27T20:56:18.647Z,13.67
2022-09-27T20:57:40.229Z,13.67
2022-09-27T20:59:55.275Z,13.69
2022-09-27T21:01:07.158Z,13.73
2022-09-27T21:02:12.504Z,13.72
2022-09-27T21:03:21.788Z,13.73
2022-09-27T21:07:21.019Z,13.76
2022-09-27T21:08:33.648Z,13.76
2022-09-27T21:11:10.755Z,13.80
2022-09-27T21:13:52.707Z,13.84
2022-09-27T21:19:43.054Z,13.86
2022-09-27T21:20:41.414Z,13.86
2022-09-27T21:21:30.593Z,13.85
2022-09-27T21:21:45.404Z,13.86
2022-09-27T21:22:51.177Z,13.86
2022-09-27T21:23:59.984Z,13.87
2022-09-27T21:25:07.446Z,13.87
2022-09-27T21:26:18.562Z,13.87
2022-09-27T21:27:24.065Z,13.88
2022-09-27T21:28:35.954Z,13.89
2022-09-27T21:29:39.952Z,13.88
2022-09-27T21:32:06.876Z,13.89
2022-09-27T21:33:12.793Z,13.89
2022-09-27T21:34:16.667Z,13.89
2022-09-27T21:35:22.675Z,13.90
2022-09-27T21:36:31.804Z,13.90
2022-09-27T21:37:35.651Z,13.91
2022-09-27T21:38:40.430Z,13.91
2022-09-27T21:39:44.291Z,13.94
2022-09-27T21:40:55.889Z,13.94
2022-09-27T21:41:59.848Z,13.92
2022-09-27T21:43:03.796Z,13.92
2022-09-27T21:44:08.669Z,13.92
2022-09-27T21:45:13.642Z,13.92
2022-09-27T21:46:22.844Z,13.93
2022-09-27T21:47:26.781Z,13.93
2022-09-27T21:48:52.731Z,13.93
2022-09-27T21:49:58.951Z,13.93
2022-09-27T21:51:12.692Z,13.91
2022-09-27T21:52:16.603Z,13.91
2022-09-27T21:53:20.469Z,13.91
2022-09-27T21:54:25.924Z,13.91
2022-09-27T21:55:31.436Z,13.90
2022-09-27T21:56:39.290Z,13.89
2022-09-27T21:57:52.037Z,13.89
2022-09-27T22:00:44.323Z,13.88
2022-09-27T22:04:21.785Z,13.89
2022-09-27T22:05:29.254Z,13.87
2022-09-27T22:06:35.707Z,13.87
2022-09-27T22:07:43.596Z,13.87
2022-09-27T22:09:12.149Z,13.86
2022-09-27T22:11:05.674Z,13.86
2022-09-27T22:13:04.317Z,13.86
2022-09-27T22:15:32.774Z,13.86
2022-09-27T22:16:38.849Z,13.85
2022-09-27T22:17:42.922Z,13.85
2022-09-27T22:18:51.150Z,13.84
2022-09-27T22:19:54.993Z,13.83
2022-09-27T22:22:40.034Z,13.85
2022-09-27T22:24:20.274Z,13.83
2022-09-27T22:25:30.140Z,13.82
2022-09-27T22:26:39.163Z,13.82
2022-09-27T22:28:08.220Z,13.81
2022-09-27T22:29:21.839Z,13.81
2022-09-27T22:30:20.645Z,13.81
2022-09-27T22:32:31.630Z,13.82
2022-09-27T22:34:02.183Z,13.83
2022-09-27T22:35:12.725Z,13.83
2022-09-27T22:36:18.641Z,13.82
2022-09-27T22:37:22.626Z,13.83
2022-09-27T22:38:27.996Z,13.83
2022-09-27T22:39:33.518Z,13.83
2022-09-27T22:40:38.994Z,13.85
2022-09-27T22:41:43.129Z,13.86
2022-09-27T22:42:48.275Z,13.86
2022-09-27T22:43:53.841Z,13.86
2022-09-27T22:44:57.700Z,13.86
2022-09-27T22:46:03.401Z,13.86
2022-09-27T22:47:30.265Z,13.88
2022-09-27T22:48:15.707Z,13.88
2022-09-27T22:49:23.525Z,13.88
2022-09-27T22:50:29.435Z,13.87
2022-09-27T22:51:35.070Z,13.87
2022-09-27T22:52:40.044Z,13.88
2022-09-27T22:53:46.777Z,13.88
2022-09-27T22:54:59.327Z,13.89
2022-09-27T22:56:04.608Z,13.87
2022-09-27T22:57:10.333Z,13.88
2022-09-27T22:58:14.215Z,13.88
2022-09-27T22:59:19.680Z,13.89
2022-09-27T23:00:26.400Z,13.88
2022-09-27T23:01:30.424Z,13.89
2022-09-27T23:02:36.683Z,13.88
2022-09-27T23:04:33.496Z,13.89
2022-09-27T23:04:56.270Z,13.89
2022-09-27T23:06:03.163Z,13.87
2022-09-27T23:07:44.404Z,13.87
2022-09-27T23:08:20.862Z,13.86
2022-09-27T23:22:42.378Z,13.72
2022-09-27T23:25:35.838Z,13.73
2022-09-27T23:28:22.913Z,13.89
2022-09-27T23:30:55.764Z,13.77
2022-09-27T23:34:45.314Z,13.78
2022-09-27T23:36:01.099Z,13.78
2022-09-27T23:37:15.209Z,13.80
2022-09-27T23:38:19.193Z,13.82
2022-09-27T23:42:04.789Z,13.82
2022-09-27T23:43:40.946Z,13.83
2022-09-27T23:44:59.791Z,13.84
2022-09-27T23:45:48.778Z,13.81
2022-09-27T23:46:56.285Z,13.80
2022-09-27T23:48:40.253Z,13.77
2022-09-27T23:51:23.094Z,13.90
2022-09-27T23:52:33.661Z,13.72
2022-09-27T23:55:03.768Z,13.70
2022-09-27T23:56:14.661Z,13.68
2022-09-27T23:58:09.454Z,13.67
2022-09-27T23:59:03.139Z,13.67
2022-09-27T23:59:47.077Z,13.67
